Time;durP1;ratioP1;P1;durP2;ratioP2;P2;SDS_P1;SDS_P2;PMS_P1;PMS_P2;Temp;Humidity;BMP_temperature;BMP_pressure;BME280_temperature;BME280_humidity;BME280_pressure;Samples;Min_cycle;Max_cycle;Signal;HPM_P1;HPM_P2
2023/12/15 00:04:19;;;;;;;;;;;6.50;1.00;;;;;;4995170;28;20391;-81
2023/12/15 00:06:55;;;;;;;;;;;6.50;1.00;;;;;;4984280;28;19910;-75
2023/12/15 00:09:31;;;;;;;;;;;6.40;1.00;;;;;;5004982;28;19920;-75
2023/12/15 00:11:56;;;;;;;;;;;6.30;1.00;;;;;;4996971;28;19910;-75
2023/12/15 00:14:25;;;;;;;;;;;6.20;1.00;;;;;;4996813;28;20053;-75
2023/12/15 00:16:50;;;;;;;;;;;6.20;1.00;;;;;;5011308;28;19917;-74
2023/12/15 00:19:25;;;;;;;;;;;6.30;1.00;;;;;;5002087;28;19918;-75
2023/12/15 00:22:13;;;;;;;;;;;6.30;1.00;;;;;;4987677;28;20041;-75
2023/12/15 00:24:43;;;;;;;;;;;6.30;1.00;;;;;;4993758;28;19913;-76
2023/12/15 00:27:08;;;;;;;;;;;6.20;1.00;;;;;;4995957;28;19909;-75
2023/12/15 00:29:34;;;;;;;;;;;6.10;1.00;;;;;;4996259;28;19921;-74
2023/12/15 00:32:00;;;;;;;;;;;6.10;1.00;;;;;;4996567;28;19917;-75
2023/12/15 00:34:26;;;;;;;;;;;;;;;;;;4990335;28;19961;-75
2023/12/15 00:36:51;;;;;;;;;;;6.10;1.00;;;;;;4988812;28;19961;-75
2023/12/15 00:39:17;;;;;;;;;;;6.10;1.00;;;;;;4994131;28;19921;-74
2023/12/15 00:41:42;;;;;;;;;;;6.10;1.00;;;;;;4994049;28;20281;-75
2023/12/15 00:44:08;;;;;;;;;;;6.10;1.00;;;;;;4996009;28;19944;-75
2023/12/15 00:46:33;;;;;;;;;;;5.90;1.00;;;;;;4996144;28;19932;-75
2023/12/15 00:48:59;;;;;;;;;;;5.80;1.00;;;;;;4994576;28;19946;-75
2023/12/15 00:55:00;;;;;;;;;;;5.90;1.00;;;;;;4985929;28;19916;-81
2023/12/15 01:03:49;;;;;;;;;;;5.80;1.00;;;;;;4995513;28;19941;-81
2023/12/15 01:12:20;;;;;;;;;;;5.90;1.00;;;;;;4995546;28;19916;-81
2023/12/15 01:14:49;;;;;;;;;;;5.80;1.00;;;;;;4995681;28;20000;-81
2023/12/15 01:17:31;;;;;;;;;;;5.90;1.00;;;;;;4982536;28;20370;-81
2023/12/15 01:20:31;;;;;;;;;;;5.90;1.00;;;;;;4995480;28;19943;-81
2023/12/15 01:23:31;;;;;;;;;;;6.00;1.00;;;;;;4987477;28;19948;-81
2023/12/15 01:26:31;;;;;;;;;;;6.00;1.00;;;;;;4984350;28;20420;-81
2023/12/15 01:29:19;;;;;;;;;;;6.10;1.00;;;;;;4996787;28;19913;-81
2023/12/15 01:35:19;;;;;;;;;;;6.10;1.00;;;;;;4995024;28;19921;-81
2023/12/15 01:37:49;;;;;;;;;;;6.00;1.00;;;;;;5007411;28;19913;-75
2023/12/15 01:40:19;;;;;;;;;;;6.00;1.00;;;;;;5008559;28;20421;-74
2023/12/15 01:42:55;;;;;;;;;;;;;;;;;;4994675;28;19918;-75
2023/12/15 01:45:43;;;;;;;;;;;6.00;1.00;;;;;;4995213;28;19964;-75
2023/12/15 01:48:19;;;;;;;;;;;5.90;1.00;;;;;;5003935;28;19914;-75
2023/12/15 01:50:44;;;;;;;;;;;5.90;1.00;;;;;;4995079;28;19960;-75
2023/12/15 01:53:31;;;;;;;;;;;5.90;1.00;;;;;;4995216;28;20319;-80
2023/12/15 01:56:31;;;;;;;;;;;6.00;1.00;;;;;;4996997;28;19914;-82
2023/12/15 01:59:25;;;;;;;;;;;6.00;1.00;;;;;;4990817;28;20009;-81
2023/12/15 02:02:07;;;;;;;;;;;6.00;1.00;;;;;;5004291;28;19992;-81
2023/12/15 02:07:35;;;;;;;;;;;6.00;1.00;;;;;;4977320;28;19917;-75
2023/12/15 02:10:01;;;;;;;;;;;6.00;1.00;;;;;;4987075;28;19914;-75
2023/12/15 02:12:26;;;;;;;;;;;6.00;1.00;;;;;;4992040;28;19914;-75
2023/12/15 02:15:01;;;;;;;;;;;5.90;1.00;;;;;;4994371;28;19910;-75
2023/12/15 02:17:37;;;;;;;;;;;5.90;1.00;;;;;;4993131;28;19913;-75
2023/12/15 02:20:03;;;;;;;;;;;5.90;1.00;;;;;;4981164;28;19925;-75
2023/12/15 02:25:49;;;;;;;;;;;5.90;1.00;;;;;;4988010;28;19933;-75
2023/12/15 02:28:31;;;;;;;;;;;5.90;1.00;;;;;;4984536;28;19913;-75
2023/12/15 02:31:21;;;;;;;;;;;6.00;1.00;;;;;;4985773;28;19910;-75
2023/12/15 02:33:47;;;;;;;;;;;6.00;1.00;;;;;;4993866;28;20434;-75
2023/12/15 02:36:37;;;;;;;;;;;5.90;1.00;;;;;;4981021;28;20028;-75
2023/12/15 02:39:19;;;;;;;;;;;5.90;1.00;;;;;;4997414;28;19914;-81
2023/12/15 02:42:09;;;;;;;;;;;5.90;1.00;;;;;;5009444;28;20250;-81
2023/12/15 02:44:37;;;;;;;;;;;6.00;1.00;;;;;;4994459;28;20009;-81
2023/12/15 02:50:19;;;;;;;;;;;6.10;1.00;;;;;;4995472;28;19954;-81
2023/12/15 02:56:19;;;;;;;;;;;6.00;1.00;;;;;;4992460;28;20057;-81
2023/12/15 03:02:13;;;;;;;;;;;6.10;1.00;;;;;;4985609;28;19920;-80
2023/12/15 03:04:49;;;;;;;;;;;6.10;1.00;;;;;;5000738;28;20423;-81
2023/12/15 03:07:31;;;;;;;;;;;6.10;1.00;;;;;;4995472;28;19910;-81
2023/12/15 03:10:01;;;;;;;;;;;6.10;1.00;;;;;;4993373;28;20297;-75
2023/12/15 03:12:32;;;;;;;;;;;6.10;1.00;;;;;;4998805;28;19945;-75
2023/12/15 03:14:58;;;;;;;;;;;6.10;1.00;;;;;;5013882;28;19996;-75
2023/12/15 03:17:24;;;;;;;;;;;6.10;1.00;;;;;;5007573;28;19914;-75
2023/12/15 03:19:50;;;;;;;;;;;6.00;1.00;;;;;;4996827;28;20548;-75
2023/12/15 03:22:25;;;;;;;;;;;6.00;1.00;;;;;;4996589;28;19921;-75
2023/12/15 03:24:50;;;;;;;;;;;6.00;1.00;;;;;;4982719;28;19910;-75
2023/12/15 03:27:16;;;;;;;;;;;5.90;1.00;;;;;;4998787;28;20274;-75
2023/12/15 03:29:42;;;;;;;;;;;5.90;1.00;;;;;;5009185;28;19913;-75
2023/12/15 03:32:31;;;;;;;;;;;5.80;1.00;;;;;;4987001;28;19973;-75
2023/12/15 03:34:56;;;;;;;;;;;5.80;1.00;;;;;;4977007;28;19914;-75
2023/12/15 03:37:22;;;;;;;;;;;5.70;1.00;;;;;;4996939;28;20008;-75
2023/12/15 03:40:19;;;;;;;;;;;5.50;1.00;;;;;;4992441;28;19945;-81
2023/12/15 03:43:19;;;;;;;;;;;5.50;1.00;;;;;;4981780;28;19917;-81
2023/12/15 03:55:19;;;;;;;;;;;5.40;1.00;;;;;;5004021;28;19917;-81
2023/12/15 04:01:19;;;;;;;;;;;5.30;1.00;;;;;;4987593;28;20004;-81
2023/12/15 04:03:45;;;;;;;;;;;5.30;1.00;;;;;;4991549;28;19910;-81
2023/12/15 04:06:13;;;;;;;;;;;5.20;1.00;;;;;;4990743;28;20048;-82
2023/12/15 04:08:49;;;;;;;;;;;5.20;1.00;;;;;;4998291;28;19920;-80
2023/12/15 04:11:37;;;;;;;;;;;5.20;1.00;;;;;;4998691;28;20051;-79
2023/12/15 04:20:09;;;;;;;;;;;5.40;1.00;;;;;;4948806;28;1803210;-81
2023/12/15 04:25:38;;;;;;;;;;;5.30;1.00;;;;;;4984038;28;20376;-75
2023/12/15 04:28:19;;;;;;;;;;;5.20;1.00;;;;;;4996488;28;19914;-76
2023/12/15 04:30:44;;;;;;;;;;;5.30;1.00;;;;;;5007278;28;19927;-74
2023/12/15 04:33:13;;;;;;;;;;;5.30;1.00;;;;;;5009083;28;20056;-76
2023/12/15 04:36:10;;;;;;;;;;;5.40;1.00;;;;;;4996559;28;19914;-75
2023/12/15 04:39:02;;;;;;;;;;;5.40;1.00;;;;;;5003181;28;19960;-75
2023/12/15 04:41:49;;;;;;;;;;;5.40;1.00;;;;;;4996141;28;19921;-75
2023/12/15 04:44:19;;;;;;;;;;;5.40;1.00;;;;;;4997541;28;19921;-75
2023/12/15 04:46:50;;;;;;;;;;;5.40;1.00;;;;;;5009175;28;19914;-75
2023/12/15 04:49:19;;;;;;;;;;;5.50;1.00;;;;;;5002902;28;20354;-74
2023/12/15 04:51:44;;;;;;;;;;;5.50;1.00;;;;;;4983681;28;19910;-74
2023/12/15 04:54:10;;;;;;;;;;;5.60;1.00;;;;;;4989011;28;19933;-75
2023/12/15 04:56:44;;;;;;;;;;;5.60;1.00;;;;;;5003716;28;20371;-75
2023/12/15 04:59:13;;;;;;;;;;;5.50;1.00;;;;;;5003214;28;19913;-75
2023/12/15 05:01:38;;;;;;;;;;;5.50;1.00;;;;;;4995760;28;19910;-75
2023/12/15 05:04:04;;;;;;;;;;;5.60;1.00;;;;;;4994442;28;19917;-74
2023/12/15 05:06:31;;;;;;;;;;;;;;;;;;4997366;28;19929;-74
2023/12/15 05:08:57;;;;;;;;;;;5.70;1.00;;;;;;4976257;28;19914;-74
2023/12/15 05:11:22;;;;;;;;;;;5.60;1.00;;;;;;4988424;28;19921;-86
2023/12/15 05:13:55;;;;;;;;;;;5.70;1.00;;;;;;4996384;28;20321;-83
2023/12/15 05:16:55;;;;;;;;;;;5.70;1.00;;;;;;4988535;28;19910;-78
2023/12/15 05:19:31;;;;;;;;;;;5.70;1.00;;;;;;4998852;28;19924;-75
2023/12/15 05:21:57;;;;;;;;;;;5.70;1.00;;;;;;4995128;28;19957;-75
2023/12/15 05:24:25;;;;;;;;;;;5.70;1.00;;;;;;5008549;28;19917;-75
2023/12/15 05:26:51;;;;;;;;;;;;;;;;;;4994255;28;19920;-74
2023/12/15 05:29:29;;;;;;;;;;;5.60;1.00;;;;;;4995047;28;19910;-76
2023/12/15 05:32:19;;;;;;;;;;;5.60;1.00;;;;;;5007420;28;19945;-76
2023/12/15 05:34:53;;;;;;;;;;;5.60;1.00;;;;;;4996644;28;19914;-82
2023/12/15 05:37:40;;;;;;;;;;;5.60;1.00;;;;;;4965168;28;19937;-82
2023/12/15 05:43:09;;;;;;;;;;;5.60;1.00;;;;;;4994895;28;19917;-80
2023/12/15 05:45:50;;;;;;;;;;;5.60;1.00;;;;;;4979146;28;19910;-82
2023/12/15 05:48:49;;;;;;;;;;;5.60;1.00;;;;;;4986475;28;20024;-79
2023/12/15 05:51:20;;;;;;;;;;;5.70;1.00;;;;;;4989156;28;19909;-75
2023/12/15 05:53:55;;;;;;;;;;;5.80;1.00;;;;;;4994381;28;19964;-75
2023/12/15 05:56:25;;;;;;;;;;;5.70;1.00;;;;;;4996956;28;19913;-75
2023/12/15 05:58:56;;;;;;;;;;;5.80;1.00;;;;;;4996791;28;19973;-75
2023/12/15 06:01:49;;;;;;;;;;;5.80;1.00;;;;;;5007844;28;20004;-75
2023/12/15 06:04:19;;;;;;;;;;;;;;;;;;4992942;28;19910;-75
2023/12/15 06:06:55;;;;;;;;;;;;;;;;;;4989058;28;19968;-75
2023/12/15 06:09:34;;;;;;;;;;;5.80;1.00;;;;;;4989885;28;19960;-75
2023/12/15 06:12:31;;;;;;;;;;;5.70;1.00;;;;;;4992965;28;20004;-75
2023/12/15 06:14:57;;;;;;;;;;;;;;;;;;4977724;28;19914;-75
2023/12/15 06:17:31;;;;;;;;;;;5.80;1.00;;;;;;4992717;28;19918;-74
2023/12/15 06:20:01;;;;;;;;;;;5.70;1.00;;;;;;4994203;28;20449;-75
2023/12/15 06:22:37;;;;;;;;;;;5.60;1.00;;;;;;4990723;28;20013;-74
2023/12/15 06:25:19;;;;;;;;;;;5.50;1.00;;;;;;4983274;28;19910;-75
2023/12/15 06:28:13;;;;;;;;;;;5.60;1.00;;;;;;4990411;28;19921;-75
2023/12/15 06:31:13;;;;;;;;;;;5.50;1.00;;;;;;4989919;28;19936;-86
2023/12/15 06:33:43;;;;;;;;;;;5.60;1.00;;;;;;4990744;28;19918;-86
2023/12/15 06:36:19;;;;;;;;;;;5.60;1.00;;;;;;4997811;28;19913;-85
2023/12/15 06:42:19;;;;;;;;;;;5.70;1.00;;;;;;4982117;28;19917;-85
2023/12/15 06:45:19;;;;;;;;;;;5.60;1.00;;;;;;4980775;28;19918;-85
2023/12/15 06:48:19;;;;;;;;;;;5.60;1.00;;;;;;5001529;28;19961;-84
2023/12/15 06:53:49;;;;;;;;;;;5.40;1.00;;;;;;4994480;28;19920;-85
2023/12/15 07:02:43;;;;;;;;;;;5.40;1.00;;;;;;4988203;28;20396;-84
2023/12/15 07:08:53;;;;;;;;;;;5.40;1.00;;;;;;4994569;28;19917;-84
2023/12/15 07:17:29;;;;;;;;;;;5.50;1.00;;;;;;4985635;28;20285;-85
2023/12/15 07:19:55;;;;;;;;;;;5.50;1.00;;;;;;4967462;28;19918;-75
2023/12/15 07:22:21;;;;;;;;;;;5.60;1.00;;;;;;5010439;28;19914;-74
2023/12/15 07:24:47;;;;;;;;;;;5.60;1.00;;;;;;4992612;28;19917;-74
2023/12/15 07:27:14;;;;;;;;;;;5.70;1.00;;;;;;4997147;28;19960;-74
2023/12/15 07:29:43;;;;;;;;;;;5.80;1.00;;;;;;5008568;28;19949;-74
2023/12/15 07:35:15;;;;;;;;;;;5.80;1.00;;;;;;4994157;28;19973;-80
2023/12/15 07:43:47;;;;;;;;;;;5.80;1.00;;;;;;5006321;28;19917;-80
2023/12/15 07:46:16;;;;;;;;;;;5.80;1.00;;;;;;4995332;28;19909;-79
2023/12/15 07:51:46;;;;;;;;;;;;;;;;;;4987550;28;19917;-80
2023/12/15 07:54:12;;;;;;;;;;;;;;;;;;4995887;28;20388;-80
2023/12/15 08:02:44;;;;;;;;;;;6.10;1.00;;;;;;5002233;28;19920;-74
2023/12/15 08:05:13;;;;;;;;;;;6.10;1.00;;;;;;4987298;28;19918;-74
2023/12/15 08:07:40;;;;;;;;;;;6.10;1.00;;;;;;4987747;28;19913;-74
2023/12/15 08:10:10;;;;;;;;;;;;;;;;;;4996493;28;19921;-74
2023/12/15 08:12:37;;;;;;;;;;;6.10;1.00;;;;;;5014214;28;19910;-74
2023/12/15 08:15:04;;;;;;;;;;;6.10;1.00;;;;;;4995876;28;19920;-74
2023/12/15 08:17:30;;;;;;;;;;;6.10;1.00;;;;;;4999737;28;19924;-73
2023/12/15 08:20:02;;;;;;;;;;;6.10;1.00;;;;;;4995475;28;19918;-74
2023/12/15 08:22:28;;;;;;;;;;;6.10;1.00;;;;;;4995767;28;19918;-74
2023/12/15 08:24:55;;;;;;;;;;;6.10;1.00;;;;;;4993159;28;20277;-74
2023/12/15 08:27:25;;;;;;;;;;;6.10;1.00;;;;;;4991534;28;20350;-74
2023/12/15 08:30:03;;;;;;;;;;;6.20;1.00;;;;;;4984653;28;19914;-74
2023/12/15 08:32:29;;;;;;;;;;;6.10;1.00;;;;;;4992958;28;19920;-74
2023/12/15 08:34:55;;;;;;;;;;;;;;;;;;4993969;28;19931;-74
2023/12/15 08:37:21;;;;;;;;;;;6.00;1.00;;;;;;4995898;28;19914;-74
2023/12/15 08:39:47;;;;;;;;;;;6.00;1.00;;;;;;4994557;28;19921;-74
2023/12/15 08:42:13;;;;;;;;;;;6.00;1.00;;;;;;4989834;28;19914;-74
2023/12/15 08:44:39;;;;;;;;;;;6.10;1.00;;;;;;5022926;28;19910;-74
2023/12/15 08:47:13;;;;;;;;;;;6.30;1.00;;;;;;5006313;28;19913;-75
2023/12/15 08:49:55;;;;;;;;;;;6.40;1.00;;;;;;4995700;28;19918;-74
2023/12/15 08:52:59;;;;;;;;;;;6.50;1.00;;;;;;4988564;28;19914;-74
2023/12/15 09:01:52;;;;;;;;;;;6.80;1.00;;;;;;4986880;28;19964;-83
2023/12/15 09:04:26;;;;;;;;;;;6.80;1.00;;;;;;4986653;28;19914;-84
2023/12/15 09:16:03;;;;;;;;;;;7.10;1.00;;;;;;4989317;28;19961;-83
2023/12/15 09:18:31;;;;;;;;;;;7.30;1.00;;;;;;4992678;28;19924;-83
2023/12/15 09:21:07;;;;;;;;;;;7.50;1.00;;;;;;5000690;28;19968;-83
2023/12/15 09:23:35;;;;;;;;;;;7.40;1.00;;;;;;5000435;28;19917;-83
2023/12/15 09:29:09;;;;;;;;;;;7.70;1.00;;;;;;4994592;28;19960;-84
2023/12/15 09:34:55;;;;;;;;;;;7.90;1.00;;;;;;4994377;28;20443;-84
2023/12/15 09:37:26;;;;;;;;;;;7.90;1.00;;;;;;4998856;28;19914;-83
2023/12/15 09:39:53;;;;;;;;;;;7.60;1.00;;;;;;5015823;28;19921;-84
2023/12/15 09:42:21;;;;;;;;;;;7.60;1.00;;;;;;5004894;28;19925;-83
2023/12/15 09:44:49;;;;;;;;;;;7.70;1.00;;;;;;5008531;28;20045;-83
2023/12/15 09:47:15;;;;;;;;;;;7.60;1.00;;;;;;5004436;28;19920;-83
2023/12/15 09:52:46;;;;;;;;;;;7.50;1.00;;;;;;4986579;28;19917;-85
2023/12/15 10:01:21;;;;;;;;;;;7.50;1.00;;;;;;4995060;28;20432;-84
2023/12/15 10:09:53;;;;;;;;;;;7.60;1.00;;;;;;4989297;28;19917;-84
2023/12/15 10:12:49;;;;;;;;;;;7.70;1.00;;;;;;4971712;28;19913;-84
2023/12/15 10:15:31;;;;;;;;;;;7.60;1.00;;;;;;5005011;28;19921;-83
2023/12/15 10:18:31;;;;;;;;;;;7.70;1.00;;;;;;5005192;28;19914;-80
2023/12/15 10:20:58;;;;;;;;;;;7.80;1.00;;;;;;4997504;28;19921;-74
2023/12/15 10:23:40;;;;;;;;;;;8.00;1.00;;;;;;4994681;28;19918;-74
2023/12/15 10:26:14;;;;;;;;;;;7.90;1.00;;;;;;4993640;28;19914;-74
2023/12/15 10:28:45;;;;;;;;;;;7.70;1.00;;;;;;4988955;28;20357;-74
2023/12/15 10:31:18;;;;;;;;;;;7.80;1.00;;;;;;4999035;28;19941;-74
2023/12/15 10:33:45;;;;;;;;;;;7.90;1.00;;;;;;4994151;28;19914;-74
2023/12/15 10:42:19;;;;;;;;;;;8.10;1.00;;;;;;4994143;28;19917;-80
2023/12/15 10:45:20;;;;;;;;;;;8.10;1.00;;;;;;4994172;28;19917;-79
2023/12/15 10:50:52;;;;;;;;;;;8.30;1.00;;;;;;4994506;28;20013;-79
2023/12/15 10:53:49;;;;;;;;;;;8.30;1.00;;;;;;4995002;28;19914;-79
2023/12/15 10:59:19;;;;;;;;;;;8.40;1.00;;;;;;5009761;28;19968;-80
2023/12/15 11:02:01;;;;;;;;;;;8.20;1.00;;;;;;5009745;28;19909;-80
2023/12/15 11:04:31;;;;;;;;;;;8.40;1.00;;;;;;5007521;28;19910;-81
2023/12/15 11:07:01;;;;;;;;;;;8.30;1.00;;;;;;4979961;28;19929;-80
2023/12/15 11:15:49;;;;;;;;;;;8.50;1.00;;;;;;4996460;28;20445;-79
2023/12/15 11:18:43;;;;;;;;;;;8.30;1.00;;;;;;4996936;28;19924;-80
2023/12/15 11:30:28;;;;;;;;;;;8.50;1.00;;;;;;4977652;28;19960;-79
2023/12/15 11:33:26;;;;;;;;;;;8.70;1.00;;;;;;4978209;28;19914;-79
2023/12/15 11:39:04;;;;;;;;;;;9.00;1.00;;;;;;4974346;28;19924;-79
2023/12/15 11:44:33;;;;;;;;;;;8.90;1.00;;;;;;4958513;29;20393;-79
2023/12/15 11:47:19;;;;;;;;;;;8.90;1.00;;;;;;4968022;28;19964;-79
2023/12/15 11:50:04;;;;;;;;;;;9.00;1.00;;;;;;4969119;28;19914;-79
2023/12/15 11:52:31;;;;;;;;;;;8.90;1.00;;;;;;4977888;28;19915;-73
2023/12/15 11:54:57;;;;;;;;;;;8.90;1.00;;;;;;4972601;28;20417;-74
2023/12/15 11:57:22;;;;;;;;;;;9.00;1.00;;;;;;4966474;28;19914;-73
2023/12/15 11:59:50;;;;;;;;;;;9.00;1.00;;;;;;4977326;28;19921;-73
2023/12/15 12:02:16;;;;;;;;;;;8.70;1.00;;;;;;4979779;28;19918;-73
2023/12/15 12:04:42;;;;;;;;;;;8.60;1.00;;;;;;4976504;28;19918;-73
2023/12/15 12:07:08;;;;;;;;;;;8.50;1.00;;;;;;4959499;28;19945;-73
2023/12/15 12:09:34;;;;;;;;;;;9.90;1.00;;;;;;4976703;28;20374;-73
2023/12/15 12:11:59;;;;;;;;;;;8.50;1.00;;;;;;4977059;28;19917;-74
2023/12/15 12:14:27;;;;;;;;;;;8.60;1.00;;;;;;4977457;28;19917;-74
2023/12/15 12:16:53;;;;;;;;;;;;;;;;;;4977049;28;19910;-73
2023/12/15 12:19:21;;;;;;;;;;;8.60;1.00;;;;;;4982926;28;20053;-73
2023/12/15 12:22:19;;;;;;;;;;;8.50;1.00;;;;;;4996537;28;19942;-80
2023/12/15 12:25:13;;;;;;;;;;;8.70;1.00;;;;;;5004732;28;19921;-79
2023/12/15 12:27:44;;;;;;;;;;;8.60;1.00;;;;;;4996600;28;20316;-79
2023/12/15 12:30:14;;;;;;;;;;;8.70;1.00;;;;;;4996255;28;19914;-79
2023/12/15 12:32:49;;;;;;;;;;;8.80;1.00;;;;;;4996813;28;19921;-81
2023/12/15 12:38:19;;;;;;;;;;;8.80;1.00;;;;;;4992538;28;19924;-79
2023/12/15 12:43:55;;;;;;;;;;;8.80;1.00;;;;;;4995619;28;19917;-80
2023/12/15 12:46:25;;;;;;;;;;;8.70;1.00;;;;;;5001731;28;19914;-79
2023/12/15 12:52:19;;;;;;;;;;;8.80;1.00;;;;;;4995326;28;19976;-80
2023/12/15 12:55:07;;;;;;;;;;;9.00;1.00;;;;;;5014665;28;19914;-80
2023/12/15 12:57:53;;;;;;;;;;;9.00;1.00;;;;;;4988198;28;19992;-78
2023/12/15 13:00:25;;;;;;;;;;;9.00;1.00;;;;;;4994218;28;19920;-81
2023/12/15 13:03:25;;;;;;;;;;;9.00;1.00;;;;;;4995866;28;19917;-80
2023/12/15 13:08:43;;;;;;;;;;;;;;;;;;4977854;28;19977;-80
2023/12/15 13:14:43;;;;;;;;;;;9.00;1.00;;;;;;4994754;28;19925;-78
2023/12/15 13:17:09;;;;;;;;;;;9.00;1.00;;;;;;4994311;28;19914;-79
2023/12/15 13:19:35;;;;;;;;;;;9.00;1.00;;;;;;4979280;28;19924;-79
2023/12/15 13:22:01;;;;;;;;;;;9.00;1.00;;;;;;4998648;28;19963;-79
2023/12/15 13:24:27;;;;;;;;;;;9.00;1.00;;;;;;5001912;28;19913;-77
2023/12/15 13:27:19;;;;;;;;;;;9.00;1.00;;;;;;4995992;28;19910;-78
2023/12/15 13:29:50;;;;;;;;;;;9.00;1.00;;;;;;4994841;28;20008;-76
2023/12/15 13:32:19;;;;;;;;;;;8.90;1.00;;;;;;4980611;28;19969;-77
2023/12/15 13:34:49;;;;;;;;;;;9.00;1.00;;;;;;4994778;28;19926;-77
2023/12/15 13:37:15;;;;;;;;;;;9.00;1.00;;;;;;4995478;28;19917;-74
2023/12/15 13:39:41;;;;;;;;;;;9.00;1.00;;;;;;4995758;28;19918;-74
2023/12/15 13:42:31;;;;;;;;;;;9.00;1.00;;;;;;4994691;28;19945;-74
2023/12/15 13:44:57;;;;;;;;;;;9.00;1.00;;;;;;4995314;28;19914;-74
2023/12/15 13:47:23;;;;;;;;;;;9.00;1.00;;;;;;4995649;28;19914;-73
2023/12/15 13:49:56;;;;;;;;;;;9.00;1.00;;;;;;4995014;28;19909;-74
2023/12/15 13:52:43;;;;;;;;;;;9.10;1.00;;;;;;4995327;28;19910;-78
2023/12/15 13:55:19;;;;;;;;;;;9.20;1.00;;;;;;4984786;28;19965;-78
2023/12/15 13:57:51;;;;;;;;;;;9.20;1.00;;;;;;4993371;28;19914;-78
2023/12/15 14:00:21;;;;;;;;;;;9.20;1.00;;;;;;4988183;28;20113;-77
2023/12/15 14:02:47;;;;;;;;;;;9.20;1.00;;;;;;4994592;28;19999;-79
2023/12/15 14:05:25;;;;;;;;;;;9.20;1.00;;;;;;4988370;28;20333;-78
2023/12/15 14:07:55;;;;;;;;;;;9.10;1.00;;;;;;4977211;28;19922;-76
2023/12/15 14:10:25;;;;;;;;;;;;;;;;;;4986430;28;20934;-75
2023/12/15 14:12:55;;;;;;;;;;;9.20;1.00;;;;;;4989568;28;19920;-76
2023/12/15 14:15:26;;;;;;;;;;;9.20;1.00;;;;;;4994767;28;19958;-76
2023/12/15 14:17:55;;;;;;;;;;;9.20;1.00;;;;;;4994821;28;19965;-76
2023/12/15 14:20:25;;;;;;;;;;;9.20;1.00;;;;;;4994744;28;19925;-77
2023/12/15 14:26:25;;;;;;;;;;;9.10;1.00;;;;;;4984985;28;19996;-77
2023/12/15 14:28:55;;;;;;;;;;;9.10;1.00;;;;;;4995012;28;20247;-74
2023/12/15 14:31:21;;;;;;;;;;;9.00;1.00;;;;;;4992722;28;19909;-75
2023/12/15 14:33:55;;;;;;;;;;;9.00;1.00;;;;;;4984380;28;19960;-75
2023/12/15 14:36:37;;;;;;;;;;;9.00;1.00;;;;;;4994686;28;19918;-74
2023/12/15 14:39:14;;;;;;;;;;;8.90;1.00;;;;;;4987309;28;19914;-77
2023/12/15 14:41:49;;;;;;;;;;;8.90;1.00;;;;;;4995155;28;19996;-77
2023/12/15 14:44:25;;;;;;;;;;;8.80;1.00;;;;;;4994832;28;19948;-76
2023/12/15 14:50:08;;;;;;;;;;;8.80;1.00;;;;;;5011782;28;19920;-78
2023/12/15 14:52:33;;;;;;;;;;;8.80;1.00;;;;;;4999237;28;19960;-73
2023/12/15 14:55:19;;;;;;;;;;;8.80;1.00;;;;;;4989364;28;20004;-73
2023/12/15 14:57:49;;;;;;;;;;;8.80;1.00;;;;;;4996934;28;19914;-74
2023/12/15 15:00:15;;;;;;;;;;;8.80;1.00;;;;;;4998164;28;20025;-74
2023/12/15 15:02:45;;;;;;;;;;;8.70;1.00;;;;;;4998367;28;19968;-74
2023/12/15 15:05:10;;;;;;;;;;;8.70;1.00;;;;;;4998155;28;19917;-73
2023/12/15 15:07:36;;;;;;;;;;;8.70;1.00;;;;;;4992268;28;19914;-74
2023/12/15 15:10:02;;;;;;;;;;;8.60;1.00;;;;;;4997996;28;19913;-74
2023/12/15 15:12:44;;;;;;;;;;;8.60;1.00;;;;;;4990485;28;19921;-73
2023/12/15 15:15:10;;;;;;;;;;;8.60;1.00;;;;;;4993332;28;20354;-74
2023/12/15 15:17:37;;;;;;;;;;;8.60;1.00;;;;;;4989724;28;19918;-74
2023/12/15 15:20:08;;;;;;;;;;;8.60;1.00;;;;;;4995008;28;20242;-74
2023/12/15 15:22:37;;;;;;;;;;;8.60;1.00;;;;;;4998312;28;20004;-76
2023/12/15 15:28:19;;;;;;;;;;;8.30;1.00;;;;;;4980316;28;19933;-77
2023/12/15 15:30:55;;;;;;;;;;;8.40;1.00;;;;;;4997515;28;19961;-78
2023/12/15 15:33:37;;;;;;;;;;;8.30;1.00;;;;;;4984292;28;19914;-77
2023/12/15 15:36:22;;;;;;;;;;;8.30;1.00;;;;;;4997512;28;19918;-78
2023/12/15 15:42:01;;;;;;;;;;;8.10;1.00;;;;;;4989191;28;19920;-79
2023/12/15 15:44:31;;;;;;;;;;;8.10;1.00;;;;;;4997448;28;20365;-79
2023/12/15 15:47:25;;;;;;;;;;;8.20;1.00;;;;;;4997466;28;19949;-79
2023/12/15 15:50:25;;;;;;;;;;;8.20;1.00;;;;;;4997387;28;19917;-79
2023/12/15 15:52:55;;;;;;;;;;;8.20;1.00;;;;;;4989643;28;19917;-79
2023/12/15 15:55:25;;;;;;;;;;;8.20;1.00;;;;;;4997414;28;19910;-79
2023/12/15 15:57:55;;;;;;;;;;;8.10;1.00;;;;;;4977694;28;19920;-79
2023/12/15 16:00:49;;;;;;;;;;;8.10;1.00;;;;;;4990855;28;19916;-79
2023/12/15 16:03:25;;;;;;;;;;;8.10;1.00;;;;;;4997193;28;20370;-79
2023/12/15 16:05:55;;;;;;;;;;;8.10;1.00;;;;;;4996575;28;19916;-79
2023/12/15 16:08:21;;;;;;;;;;;;;;;;;;4995928;28;19913;-74
2023/12/15 16:11:07;;;;;;;;;;;7.90;1.00;;;;;;4996757;28;19918;-74
2023/12/15 16:13:37;;;;;;;;;;;7.90;1.00;;;;;;4996998;28;19914;-74
2023/12/15 16:16:05;;;;;;;;;;;7.80;1.00;;;;;;4996939;28;19910;-73
2023/12/15 16:18:31;;;;;;;;;;;7.80;1.00;;;;;;5011833;28;20004;-74
2023/12/15 16:21:01;;;;;;;;;;;7.80;1.00;;;;;;4996832;28;19918;-73
2023/12/15 16:23:55;;;;;;;;;;;7.80;1.00;;;;;;4996975;28;19916;-79
2023/12/15 16:26:31;;;;;;;;;;;7.80;1.00;;;;;;4994989;28;19961;-79
2023/12/15 16:29:25;;;;;;;;;;;7.80;1.00;;;;;;4992999;28;20370;-79
2023/12/15 16:32:14;;;;;;;;;;;7.80;1.00;;;;;;4996270;28;19921;-79
2023/12/15 16:34:39;;;;;;;;;;;7.80;1.00;;;;;;4996558;28;20452;-79
2023/12/15 16:37:25;;;;;;;;;;;7.70;1.00;;;;;;4996565;28;20012;-79
2023/12/15 16:39:55;;;;;;;;;;;7.70;1.00;;;;;;4992051;28;19914;-79
2023/12/15 16:42:25;;;;;;;;;;;7.70;1.00;;;;;;5011485;28;20330;-80
2023/12/15 16:45:25;;;;;;;;;;;7.70;1.00;;;;;;4996348;28;20396;-80
2023/12/15 16:48:25;;;;;;;;;;;7.60;1.00;;;;;;4992968;28;19917;-79
2023/12/15 16:53:56;;;;;;;;;;;7.60;4.40;;;;;;4989330;28;19917;-79
2023/12/15 16:56:22;;;;;;;;;;;7.60;5.20;;;;;;4987324;28;19913;-79
2023/12/15 17:01:55;;;;;;;;;;;7.50;12.30;;;;;;4987451;28;19956;-79
2023/12/15 17:04:26;;;;;;;;;;;7.50;10.80;;;;;;4995989;28;19914;-79
2023/12/15 17:07:25;;;;;;;;;;;7.40;15.30;;;;;;4994865;28;19996;-79
2023/12/15 17:09:51;;;;;;;;;;;;;;;;;;4986326;28;19910;-74
2023/12/15 17:12:19;;;;;;;;;;;7.50;16.40;;;;;;4989459;28;19960;-73
2023/12/15 17:14:46;;;;;;;;;;;;;;;;;;4988601;28;19996;-72
2023/12/15 17:17:11;;;;;;;;;;;7.50;16.70;;;;;;4988013;28;19941;-72
2023/12/15 17:19:37;;;;;;;;;;;;;;;;;;4997405;28;19918;-72
2023/12/15 17:22:03;;;;;;;;;;;7.50;11.10;;;;;;4989558;28;19918;-72
2023/12/15 17:24:40;;;;;;;;;;;7.50;10.70;;;;;;4994446;28;20471;-77
2023/12/15 17:27:14;;;;;;;;;;;7.40;8.70;;;;;;4994795;28;19913;-75
2023/12/15 17:32:25;;;;;;;;;;;7.30;10.10;;;;;;4986121;28;19960;-77
2023/12/15 17:34:55;;;;;;;;;;;7.30;9.70;;;;;;4995390;28;19921;-77
2023/12/15 17:37:25;;;;;;;;;;;7.30;10.10;;;;;;5011425;28;19921;-78
2023/12/15 17:39:56;;;;;;;;;;;7.30;9.30;;;;;;5010293;28;19918;-77
2023/12/15 17:42:25;;;;;;;;;;;7.10;7.50;;;;;;5004247;28;19913;-77
2023/12/15 17:44:55;;;;;;;;;;;;;;;;;;4996262;28;19909;-76
2023/12/15 17:47:25;;;;;;;;;;;7.10;9.70;;;;;;4979445;28;19964;-77
2023/12/15 17:49:55;;;;;;;;;;;7.10;9.20;;;;;;4987343;28;19948;-77
2023/12/15 17:52:21;;;;;;;;;;;7.20;8.70;;;;;;5011118;28;19928;-78
2023/12/15 17:54:49;;;;;;;;;;;7.20;8.10;;;;;;4995426;28;19909;-78
2023/12/15 17:57:25;;;;;;;;;;;7.20;7.90;;;;;;4996455;28;19913;-76
2023/12/15 17:59:57;;;;;;;;;;;7.10;8.70;;;;;;5005853;28;19921;-76
2023/12/15 18:02:26;;;;;;;;;;;6.90;12.10;;;;;;5004156;28;19996;-78
2023/12/15 18:04:55;;;;;;;;;;;6.80;16.40;;;;;;4998399;28;19914;-78
2023/12/15 18:07:25;;;;;;;;;;;6.90;18.40;;;;;;4990998;28;20012;-78
2023/12/15 18:09:55;;;;;;;;;;;6.90;19.00;;;;;;4998835;28;20012;-81
2023/12/15 18:12:27;;;;;;;;;;;6.80;19.90;;;;;;4996406;28;19910;-81
2023/12/15 18:14:53;;;;;;;;;;;;;;;;;;4995188;28;20384;-77
2023/12/15 18:17:19;;;;;;;;;;;6.80;23.90;;;;;;4994691;28;19964;-80
2023/12/15 18:19:45;;;;;;;;;;;6.70;27.10;;;;;;4993349;28;19929;-78
2023/12/15 18:22:10;;;;;;;;;;;6.80;37.00;;;;;;4988646;28;19913;-81
2023/12/15 18:24:42;;;;;;;;;;;6.70;36.90;;;;;;4965789;28;20374;-79
2023/12/15 18:27:14;;;;;;;;;;;6.70;36.90;;;;;;4988527;28;19921;-75
2023/12/15 18:29:43;;;;;;;;;;;6.80;36.90;;;;;;4977002;28;19940;-81
2023/12/15 18:32:19;;;;;;;;;;;6.80;36.90;;;;;;4988169;28;19996;-83
2023/12/15 18:35:20;;;;;;;;;;;6.80;37.00;;;;;;4991362;28;19914;-83
2023/12/15 18:37:49;;;;;;;;;;;6.90;37.00;;;;;;4990304;28;19918;-83
2023/12/15 18:40:49;;;;;;;;;;;7.00;37.10;;;;;;4994626;28;19913;-82
2023/12/15 18:43:26;;;;;;;;;;;7.00;37.10;;;;;;5001647;28;19917;-74
2023/12/15 18:49:07;;;;;;;;;;;7.20;37.30;;;;;;4994160;28;20003;-79
2023/12/15 19:00:50;;;;;;;;;;;7.20;37.30;;;;;;4994864;28;19920;-87
2023/12/15 19:06:49;;;;;;;;;;;7.20;37.30;;;;;;4992601;28;19921;-86
2023/12/15 19:09:19;;;;;;;;;;;7.30;37.40;;;;;;4994982;28;19916;-86
2023/12/15 19:12:07;;;;;;;;;;;7.20;37.30;;;;;;4993460;28;19969;-83
2023/12/15 19:21:13;;;;;;;;;;;7.20;33.80;;;;;;4994189;28;20297;-85
2023/12/15 19:23:52;;;;;;;;;;;7.30;30.30;;;;;;4980524;28;19997;-85